sensor_id;sensor_type;location;lat;lon;timestamp;P1;durP1;ratioP1;P2;durP2;ratioP2
562;SDS011;266;49.514;8.294;2024-03-22T00:02:15;10.50;;;8.60;;
562;SDS011;266;49.514;8.294;2024-03-22T00:04:43;12.00;;;9.70;;
562;SDS011;266;49.514;8.294;2024-03-22T00:07:09;10.30;;;9.00;;
562;SDS011;266;49.514;8.294;2024-03-22T00:09:36;11.60;;;9.77;;
562;SDS011;266;49.514;8.294;2024-03-22T00:12:02;12.90;;;9.70;;
562;SDS011;266;49.514;8.294;2024-03-22T00:14:29;9.47;;;8.47;;
562;SDS011;266;49.514;8.294;2024-03-22T00:16:55;9.03;;;8.00;;
562;SDS011;266;49.514;8.294;2024-03-22T00:19:24;9.73;;;8.07;;
562;SDS011;266;49.514;8.294;2024-03-22T00:21:50;12.33;;;9.17;;
562;SDS011;266;49.514;8.294;2024-03-22T00:24:17;10.43;;;9.10;;
562;SDS011;266;49.514;8.294;2024-03-22T00:26:43;12.73;;;9.00;;
562;SDS011;266;49.514;8.294;2024-03-22T00:29:10;10.73;;;9.60;;
562;SDS011;266;49.514;8.294;2024-03-22T00:31:37;9.70;;;8.37;;
562;SDS011;266;49.514;8.294;2024-03-22T00:34:04;13.70;;;7.80;;
562;SDS011;266;49.514;8.294;2024-03-22T00:36:31;10.70;;;9.30;;
562;SDS011;266;49.514;8.294;2024-03-22T00:38:59;9.23;;;8.33;;
562;SDS011;266;49.514;8.294;2024-03-22T00:41:25;9.97;;;8.13;;
562;SDS011;266;49.514;8.294;2024-03-22T00:43:52;10.57;;;7.73;;
562;SDS011;266;49.514;8.294;2024-03-22T00:46:18;7.33;;;6.53;;
562;SDS011;266;49.514;8.294;2024-03-22T00:48:46;10.90;;;9.90;;
562;SDS011;266;49.514;8.294;2024-03-22T00:51:12;9.60;;;8.60;;
562;SDS011;266;49.514;8.294;2024-03-22T00:53:41;10.60;;;8.13;;
562;SDS011;266;49.514;8.294;2024-03-22T00:56:07;9.43;;;7.83;;
562;SDS011;266;49.514;8.294;2024-03-22T00:58:34;8.63;;;7.77;;
562;SDS011;266;49.514;8.294;2024-03-22T01:01:00;9.90;;;7.90;;
562;SDS011;266;49.514;8.294;2024-03-22T01:03:27;9.10;;;8.13;;
562;SDS011;266;49.514;8.294;2024-03-22T01:05:54;10.80;;;9.10;;
562;SDS011;266;49.514;8.294;2024-03-22T01:08:22;8.30;;;7.50;;
562;SDS011;266;49.514;8.294;2024-03-22T01:10:50;9.43;;;8.30;;
562;SDS011;266;49.514;8.294;2024-03-22T01:13:17;7.90;;;7.20;;
562;SDS011;266;49.514;8.294;2024-03-22T01:15:43;8.60;;;7.70;;
562;SDS011;266;49.514;8.294;2024-03-22T01:18:11;10.33;;;8.20;;
562;SDS011;266;49.514;8.294;2024-03-22T01:20:37;10.83;;;7.77;;
562;SDS011;266;49.514;8.294;2024-03-22T01:23:04;9.37;;;8.27;;
562;SDS011;266;49.514;8.294;2024-03-22T01:25:31;8.10;;;7.27;;
562;SDS011;266;49.514;8.294;2024-03-22T01:27:59;8.47;;;7.60;;
562;SDS011;266;49.514;8.294;2024-03-22T01:30:25;8.80;;;7.47;;
562;SDS011;266;49.514;8.294;2024-03-22T01:32:53;8.77;;;7.53;;
562;SDS011;266;49.514;8.294;2024-03-22T01:35:20;12.80;;;7.60;;
562;SDS011;266;49.514;8.294;2024-03-22T01:37:47;6.83;;;6.07;;
562;SDS011;266;49.514;8.294;2024-03-22T01:40:14;8.93;;;8.07;;
562;SDS011;266;49.514;8.294;2024-03-22T01:42:41;12.00;;;9.33;;
562;SDS011;266;49.514;8.294;2024-03-22T01:45:09;8.83;;;7.93;;
562;SDS011;266;49.514;8.294;2024-03-22T01:47:40;8.13;;;7.43;;
562;SDS011;266;49.514;8.294;2024-03-22T01:50:07;10.37;;;8.30;;
562;SDS011;266;49.514;8.294;2024-03-22T01:52:37;10.07;;;7.80;;
562;SDS011;266;49.514;8.294;2024-03-22T01:55:05;9.30;;;7.23;;
562;SDS011;266;49.514;8.294;2024-03-22T01:57:34;11.27;;;7.87;;
562;SDS011;266;49.514;8.294;2024-03-22T02:00:01;8.80;;;7.90;;
562;SDS011;266;49.514;8.294;2024-03-22T02:02:30;8.00;;;6.90;;
562;SDS011;266;49.514;8.294;2024-03-22T02:04:57;8.67;;;7.40;;
562;SDS011;266;49.514;8.294;2024-03-22T02:07:24;8.33;;;7.20;;
562;SDS011;266;49.514;8.294;2024-03-22T02:09:51;8.20;;;7.40;;
562;SDS011;266;49.514;8.294;2024-03-22T02:12:17;8.83;;;7.90;;
562;SDS011;266;49.514;8.294;2024-03-22T02:14:44;8.20;;;6.90;;
562;SDS011;266;49.514;8.294;2024-03-22T02:17:10;7.43;;;6.37;;
562;SDS011;266;49.514;8.294;2024-03-22T02:19:39;6.23;;;5.63;;
562;SDS011;266;49.514;8.294;2024-03-22T02:22:05;8.17;;;6.47;;
562;SDS011;266;49.514;8.294;2024-03-22T02:24:33;8.73;;;7.13;;
562;SDS011;266;49.514;8.294;2024-03-22T02:27:00;7.13;;;6.30;;
562;SDS011;266;49.514;8.294;2024-03-22T02:29:27;5.70;;;5.13;;
562;SDS011;266;49.514;8.294;2024-03-22T02:31:53;6.70;;;5.43;;
562;SDS011;266;49.514;8.294;2024-03-22T02:34:20;5.83;;;5.23;;
562;SDS011;266;49.514;8.294;2024-03-22T02:36:46;6.50;;;5.70;;
562;SDS011;266;49.514;8.294;2024-03-22T02:39:13;6.90;;;6.20;;
562;SDS011;266;49.514;8.294;2024-03-22T02:41:41;6.93;;;6.23;;
562;SDS011;266;49.514;8.294;2024-03-22T02:44:08;8.63;;;5.83;;
562;SDS011;266;49.514;8.294;2024-03-22T02:46:34;16.80;;;6.73;;
562;SDS011;266;49.514;8.294;2024-03-22T02:49:01;7.53;;;6.00;;
562;SDS011;266;49.514;8.294;2024-03-22T02:51:27;6.73;;;5.93;;
562;SDS011;266;49.514;8.294;2024-03-22T02:53:54;7.20;;;5.60;;
562;SDS011;266;49.514;8.294;2024-03-22T02:56:21;6.60;;;6.00;;
562;SDS011;266;49.514;8.294;2024-03-22T02:58:50;7.20;;;5.70;;
562;SDS011;266;49.514;8.294;2024-03-22T03:01:17;5.13;;;4.70;;
562;SDS011;266;49.514;8.294;2024-03-22T03:03:44;6.20;;;5.60;;
562;SDS011;266;49.514;8.294;2024-03-22T03:06:10;7.77;;;6.53;;
562;SDS011;266;49.514;8.294;2024-03-22T03:08:38;8.07;;;6.63;;
562;SDS011;266;49.514;8.294;2024-03-22T03:11:04;11.13;;;6.07;;
562;SDS011;266;49.514;8.294;2024-03-22T03:13:31;7.30;;;5.93;;
562;SDS011;266;49.514;8.294;2024-03-22T03:15:59;6.37;;;5.77;;
562;SDS011;266;49.514;8.294;2024-03-22T03:18:26;7.27;;;5.93;;
562;SDS011;266;49.514;8.294;2024-03-22T03:20:52;7.63;;;6.53;;
562;SDS011;266;49.514;8.294;2024-03-22T03:23:19;7.10;;;6.10;;
562;SDS011;266;49.514;8.294;2024-03-22T03:25:45;5.73;;;5.10;;
562;SDS011;266;49.514;8.294;2024-03-22T03:28:13;7.90;;;6.00;;
562;SDS011;266;49.514;8.294;2024-03-22T03:30:39;7.70;;;7.00;;
562;SDS011;266;49.514;8.294;2024-03-22T03:33:08;7.43;;;6.20;;
562;SDS011;266;49.514;8.294;2024-03-22T03:35:34;7.60;;;5.60;;
562;SDS011;266;49.514;8.294;2024-03-22T03:38:01;6.40;;;5.80;;
562;SDS011;266;49.514;8.294;2024-03-22T03:40:27;6.77;;;6.10;;
562;SDS011;266;49.514;8.294;2024-03-22T03:42:54;6.90;;;6.13;;
562;SDS011;266;49.514;8.294;2024-03-22T03:45:20;8.40;;;7.53;;
562;SDS011;266;49.514;8.294;2024-03-22T03:47:48;7.40;;;6.30;;
562;SDS011;266;49.514;8.294;2024-03-22T03:50:16;6.77;;;6.17;;
562;SDS011;266;49.514;8.294;2024-03-22T03:52:45;7.87;;;6.53;;
562;SDS011;266;49.514;8.294;2024-03-22T03:55:12;6.27;;;5.67;;
562;SDS011;266;49.514;8.294;2024-03-22T03:57:39;6.23;;;5.53;;
562;SDS011;266;49.514;8.294;2024-03-22T04:00:05;7.23;;;6.53;;
562;SDS011;266;49.514;8.294;2024-03-22T04:02:34;6.20;;;5.60;;
562;SDS011;266;49.514;8.294;2024-03-22T04:05:00;8.60;;;7.80;;
562;SDS011;266;49.514;8.294;2024-03-22T04:07:28;7.90;;;7.10;;
562;SDS011;266;49.514;8.294;2024-03-22T04:09:54;7.33;;;6.57;;
562;SDS011;266;49.514;8.294;2024-03-22T04:12:22;6.60;;;6.00;;
562;SDS011;266;49.514;8.294;2024-03-22T04:14:49;6.70;;;5.90;;
562;SDS011;266;49.514;8.294;2024-03-22T04:19:45;7.67;;;6.17;;
562;SDS011;266;49.514;8.294;2024-03-22T04:22:14;6.80;;;5.83;;
562;SDS011;266;49.514;8.294;2024-03-22T04:24:43;7.97;;;6.50;;
562;SDS011;266;49.514;8.294;2024-03-22T04:27:09;7.30;;;6.50;;
562;SDS011;266;49.514;8.294;2024-03-22T04:29:36;8.10;;;7.03;;
562;SDS011;266;49.514;8.294;2024-03-22T04:32:02;6.97;;;6.27;;
562;SDS011;266;49.514;8.294;2024-03-22T04:34:29;6.67;;;5.97;;
562;SDS011;266;49.514;8.294;2024-03-22T04:36:55;8.30;;;6.50;;
562;SDS011;266;49.514;8.294;2024-03-22T04:39:23;8.10;;;6.67;;
562;SDS011;266;49.514;8.294;2024-03-22T04:41:52;6.53;;;5.83;;
562;SDS011;266;49.514;8.294;2024-03-22T04:44:18;6.77;;;6.07;;
562;SDS011;266;49.514;8.294;2024-03-22T04:46:48;7.23;;;6.30;;
562;SDS011;266;49.514;8.294;2024-03-22T04:49:15;7.93;;;6.70;;
562;SDS011;266;49.514;8.294;2024-03-22T04:51:41;7.00;;;6.10;;
562;SDS011;266;49.514;8.294;2024-03-22T04:54:08;6.50;;;6.00;;
562;SDS011;266;49.514;8.294;2024-03-22T04:56:34;10.67;;;6.90;;
562;SDS011;266;49.514;8.294;2024-03-22T04:59:03;10.30;;;7.33;;
562;SDS011;266;49.514;8.294;2024-03-22T05:01:29;8.10;;;7.30;;
562;SDS011;266;49.514;8.294;2024-03-22T05:03:56;9.60;;;7.20;;
562;SDS011;266;49.514;8.294;2024-03-22T05:06:22;8.73;;;7.57;;
562;SDS011;266;49.514;8.294;2024-03-22T05:08:49;10.10;;;7.50;;
562;SDS011;266;49.514;8.294;2024-03-22T05:11:16;10.27;;;7.10;;
562;SDS011;266;49.514;8.294;2024-03-22T05:13:43;6.90;;;5.83;;
562;SDS011;266;49.514;8.294;2024-03-22T05:16:10;7.97;;;7.03;;
562;SDS011;266;49.514;8.294;2024-03-22T05:18:37;8.50;;;7.57;;
562;SDS011;266;49.514;8.294;2024-03-22T05:21:04;16.27;;;8.13;;
562;SDS011;266;49.514;8.294;2024-03-22T05:23:31;8.80;;;7.37;;
562;SDS011;266;49.514;8.294;2024-03-22T05:25:57;11.10;;;8.50;;
562;SDS011;266;49.514;8.294;2024-03-22T05:28:25;9.80;;;7.33;;
562;SDS011;266;49.514;8.294;2024-03-22T05:30:51;10.60;;;8.03;;
562;SDS011;266;49.514;8.294;2024-03-22T05:33:19;10.10;;;7.10;;
562;SDS011;266;49.514;8.294;2024-03-22T05:35:45;13.10;;;8.43;;
562;SDS011;266;49.514;8.294;2024-03-22T05:38:15;11.53;;;8.13;;
562;SDS011;266;49.514;8.294;2024-03-22T05:40:42;9.40;;;7.93;;
562;SDS011;266;49.514;8.294;2024-03-22T05:43:11;14.63;;;8.60;;
562;SDS011;266;49.514;8.294;2024-03-22T05:45:37;9.70;;;7.73;;
562;SDS011;266;49.514;8.294;2024-03-22T05:48:06;10.47;;;7.40;;
562;SDS011;266;49.514;8.294;2024-03-22T05:50:34;8.73;;;7.60;;
562;SDS011;266;49.514;8.294;2024-03-22T05:53:01;8.50;;;7.13;;
562;SDS011;266;49.514;8.294;2024-03-22T05:55:27;7.77;;;6.70;;
562;SDS011;266;49.514;8.294;2024-03-22T05:57:56;11.10;;;8.53;;
562;SDS011;266;49.514;8.294;2024-03-22T06:00:22;8.37;;;7.50;;
562;SDS011;266;49.514;8.294;2024-03-22T06:02:50;8.13;;;6.80;;
562;SDS011;266;49.514;8.294;2024-03-22T06:05:16;9.37;;;7.60;;
562;SDS011;266;49.514;8.294;2024-03-22T06:07:44;10.00;;;6.67;;
562;SDS011;266;49.514;8.294;2024-03-22T06:10:11;10.03;;;7.80;;
562;SDS011;266;49.514;8.294;2024-03-22T06:12:38;7.80;;;7.00;;
562;SDS011;266;49.514;8.294;2024-03-22T06:15:06;9.23;;;7.47;;
562;SDS011;266;49.514;8.294;2024-03-22T06:17:32;8.43;;;7.40;;
562;SDS011;266;49.514;8.294;2024-03-22T06:20:00;9.60;;;7.93;;
562;SDS011;266;49.514;8.294;2024-03-22T06:22:26;9.37;;;7.87;;
562;SDS011;266;49.514;8.294;2024-03-22T06:24:55;8.87;;;8.07;;
562;SDS011;266;49.514;8.294;2024-03-22T06:27:21;10.47;;;9.10;;
562;SDS011;266;49.514;8.294;2024-03-22T06:29:48;10.37;;;9.03;;
562;SDS011;266;49.514;8.294;2024-03-22T06:32:15;9.67;;;7.80;;
562;SDS011;266;49.514;8.294;2024-03-22T06:34:42;11.43;;;9.30;;
562;SDS011;266;49.514;8.294;2024-03-22T06:37:08;9.80;;;8.77;;
562;SDS011;266;49.514;8.294;2024-03-22T06:39:35;11.60;;;8.60;;
562;SDS011;266;49.514;8.294;2024-03-22T06:42:03;11.33;;;8.93;;
562;SDS011;266;49.514;8.294;2024-03-22T06:44:31;9.10;;;8.10;;
562;SDS011;266;49.514;8.294;2024-03-22T06:46:57;11.13;;;10.03;;
562;SDS011;266;49.514;8.294;2024-03-22T06:49:25;9.37;;;8.40;;
562;SDS011;266;49.514;8.294;2024-03-22T06:51:51;11.93;;;8.77;;
562;SDS011;266;49.514;8.294;2024-03-22T06:54:18;9.57;;;8.67;;
562;SDS011;266;49.514;8.294;2024-03-22T06:56:44;11.90;;;7.70;;
562;SDS011;266;49.514;8.294;2024-03-22T06:59:12;11.37;;;8.87;;
562;SDS011;266;49.514;8.294;2024-03-22T07:01:39;8.40;;;7.27;;
562;SDS011;266;49.514;8.294;2024-03-22T07:04:06;9.00;;;8.07;;
562;SDS011;266;49.514;8.294;2024-03-22T07:06:32;10.50;;;8.30;;
562;SDS011;266;49.514;8.294;2024-03-22T07:08:59;5.90;;;5.33;;
562;SDS011;266;49.514;8.294;2024-03-22T07:11:25;10.97;;;7.43;;
562;SDS011;266;49.514;8.294;2024-03-22T07:13:53;9.97;;;7.30;;
562;SDS011;266;49.514;8.294;2024-03-22T07:16:20;8.90;;;8.00;;
562;SDS011;266;49.514;8.294;2024-03-22T07:18:47;8.87;;;7.70;;
562;SDS011;266;49.514;8.294;2024-03-22T07:21:14;8.43;;;7.03;;
562;SDS011;266;49.514;8.294;2024-03-22T07:23:41;11.20;;;8.53;;
562;SDS011;266;49.514;8.294;2024-03-22T07:26:09;7.87;;;7.17;;
562;SDS011;266;49.514;8.294;2024-03-22T07:28:36;9.70;;;8.20;;
562;SDS011;266;49.514;8.294;2024-03-22T07:31:02;7.73;;;6.23;;
562;SDS011;266;49.514;8.294;2024-03-22T07:33:32;9.30;;;7.73;;
562;SDS011;266;49.514;8.294;2024-03-22T07:36:01;9.07;;;7.90;;
562;SDS011;266;49.514;8.294;2024-03-22T07:38:28;9.60;;;8.17;;
562;SDS011;266;49.514;8.294;2024-03-22T07:40:54;10.00;;;7.97;;
562;SDS011;266;49.514;8.294;2024-03-22T07:43:22;8.93;;;7.70;;
562;SDS011;266;49.514;8.294;2024-03-22T07:45:48;8.80;;;7.90;;
562;SDS011;266;49.514;8.294;2024-03-22T07:48:15;7.27;;;6.50;;
562;SDS011;266;49.514;8.294;2024-03-22T07:50:42;9.10;;;6.77;;
562;SDS011;266;49.514;8.294;2024-03-22T07:53:10;10.97;;;7.07;;
562;SDS011;266;49.514;8.294;2024-03-22T07:55:36;7.83;;;6.53;;
562;SDS011;266;49.514;8.294;2024-03-22T07:58:03;7.60;;;6.53;;
562;SDS011;266;49.514;8.294;2024-03-22T08:00:31;6.97;;;6.27;;
562;SDS011;266;49.514;8.294;2024-03-22T08:02:58;6.43;;;5.83;;
562;SDS011;266;49.514;8.294;2024-03-22T08:05:24;9.73;;;6.70;;
562;SDS011;266;49.514;8.294;2024-03-22T08:07:53;8.27;;;7.47;;
562;SDS011;266;49.514;8.294;2024-03-22T08:10:19;8.43;;;7.53;;
562;SDS011;266;49.514;8.294;2024-03-22T08:12:46;13.17;;;8.37;;
562;SDS011;266;49.514;8.294;2024-03-22T08:15:13;8.83;;;7.00;;
562;SDS011;266;49.514;8.294;2024-03-22T08:17:41;8.80;;;8.00;;
562;SDS011;266;49.514;8.294;2024-03-22T08:20:07;7.90;;;7.20;;
562;SDS011;266;49.514;8.294;2024-03-22T08:22:35;7.90;;;6.60;;
562;SDS011;266;49.514;8.294;2024-03-22T08:25:02;12.53;;;7.73;;
562;SDS011;266;49.514;8.294;2024-03-22T08:27:32;9.67;;;6.50;;
562;SDS011;266;49.514;8.294;2024-03-22T08:30:00;7.77;;;6.97;;
562;SDS011;266;49.514;8.294;2024-03-22T08:32:29;7.00;;;6.30;;
562;SDS011;266;49.514;8.294;2024-03-22T08:34:55;7.50;;;6.80;;
562;SDS011;266;49.514;8.294;2024-03-22T08:37:22;8.40;;;7.70;;
562;SDS011;266;49.514;8.294;2024-03-22T08:39:48;8.53;;;7.70;;
562;SDS011;266;49.514;8.294;2024-03-22T08:42:17;7.30;;;6.60;;
562;SDS011;266;49.514;8.294;2024-03-22T08:44:43;7.10;;;6.40;;
562;SDS011;266;49.514;8.294;2024-03-22T08:47:10;6.90;;;6.20;;
562;SDS011;266;49.514;8.294;2024-03-22T08:49:37;7.17;;;6.57;;
562;SDS011;266;49.514;8.294;2024-03-22T08:52:04;7.33;;;6.50;;
562;SDS011;266;49.514;8.294;2024-03-22T08:54:32;7.20;;;6.50;;
562;SDS011;266;49.514;8.294;2024-03-22T08:56:59;7.50;;;6.70;;
562;SDS011;266;49.514;8.294;2024-03-22T08:59:27;6.30;;;5.73;;
562;SDS011;266;49.514;8.294;2024-03-22T09:01:54;6.60;;;6.00;;
562;SDS011;266;49.514;8.294;2024-03-22T09:04:20;7.43;;;6.63;;
562;SDS011;266;49.514;8.294;2024-03-22T09:06:47;6.37;;;5.73;;
562;SDS011;266;49.514;8.294;2024-03-22T09:09:13;7.30;;;6.60;;
562;SDS011;266;49.514;8.294;2024-03-22T09:11:40;7.60;;;6.47;;
562;SDS011;266;49.514;8.294;2024-03-22T09:14:07;7.90;;;6.17;;
562;SDS011;266;49.514;8.294;2024-03-22T09:16:35;9.67;;;6.30;;
562;SDS011;266;49.514;8.294;2024-03-22T09:19:01;5.87;;;5.27;;
562;SDS011;266;49.514;8.294;2024-03-22T09:21:28;8.73;;;6.67;;
562;SDS011;266;49.514;8.294;2024-03-22T09:23:56;6.23;;;5.43;;
562;SDS011;266;49.514;8.294;2024-03-22T09:26:22;6.20;;;5.60;;
562;SDS011;266;49.514;8.294;2024-03-22T09:28:50;6.47;;;5.67;;
562;SDS011;266;49.514;8.294;2024-03-22T09:31:16;6.50;;;5.70;;
562;SDS011;266;49.514;8.294;2024-03-22T09:33:44;6.83;;;5.50;;
562;SDS011;266;49.514;8.294;2024-03-22T09:36:10;10.40;;;6.07;;
562;SDS011;266;49.514;8.294;2024-03-22T09:38:37;9.60;;;5.60;;
562;SDS011;266;49.514;8.294;2024-03-22T09:41:04;5.77;;;5.27;;
562;SDS011;266;49.514;8.294;2024-03-22T09:43:31;5.93;;;5.33;;
562;SDS011;266;49.514;8.294;2024-03-22T09:45:58;7.20;;;5.13;;
562;SDS011;266;49.514;8.294;2024-03-22T09:48:26;6.03;;;5.13;;
562;SDS011;266;49.514;8.294;2024-03-22T09:50:55;5.20;;;4.70;;
562;SDS011;266;49.514;8.294;2024-03-22T09:53:22;5.87;;;5.00;;
562;SDS011;266;49.514;8.294;2024-03-22T09:55:52;6.07;;;5.57;;
562;SDS011;266;49.514;8.294;2024-03-22T09:58:23;6.37;;;5.87;;
562;SDS011;266;49.514;8.294;2024-03-22T10:00:51;5.33;;;4.87;;
562;SDS011;266;49.514;8.294;2024-03-22T10:03:18;4.67;;;4.27;;
562;SDS011;266;49.514;8.294;2024-03-22T10:05:44;5.90;;;4.70;;
562;SDS011;266;49.514;8.294;2024-03-22T10:08:14;6.50;;;4.53;;
562;SDS011;266;49.514;8.294;2024-03-22T10:10:41;4.93;;;4.43;;
562;SDS011;266;49.514;8.294;2024-03-22T10:13:08;7.10;;;3.90;;
562;SDS011;266;49.514;8.294;2024-03-22T10:15:34;4.57;;;4.17;;
562;SDS011;266;49.514;8.294;2024-03-22T10:18:02;3.97;;;3.60;;
562;SDS011;266;49.514;8.294;2024-03-22T10:20:30;4.37;;;3.97;;
562;SDS011;266;49.514;8.294;2024-03-22T10:22:58;6.63;;;4.03;;
562;SDS011;266;49.514;8.294;2024-03-22T10:25:26;7.97;;;4.17;;
562;SDS011;266;49.514;8.294;2024-03-22T10:27:56;5.33;;;4.83;;
562;SDS011;266;49.514;8.294;2024-03-22T10:30:22;5.20;;;3.83;;
562;SDS011;266;49.514;8.294;2024-03-22T10:32:51;4.27;;;3.87;;
562;SDS011;266;49.514;8.294;2024-03-22T10:35:17;5.33;;;4.53;;
562;SDS011;266;49.514;8.294;2024-03-22T10:37:45;4.47;;;3.80;;
562;SDS011;266;49.514;8.294;2024-03-22T10:40:12;4.23;;;3.83;;
562;SDS011;266;49.514;8.294;2024-03-22T10:42:41;4.20;;;3.83;;
562;SDS011;266;49.514;8.294;2024-03-22T10:45:08;3.60;;;3.30;;
562;SDS011;266;49.514;8.294;2024-03-22T10:47:36;8.60;;;4.60;;
562;SDS011;266;49.514;8.294;2024-03-22T10:50:05;4.30;;;3.87;;
562;SDS011;266;49.514;8.294;2024-03-22T10:52:34;5.93;;;3.97;;
562;SDS011;266;49.514;8.294;2024-03-22T10:55:06;4.40;;;3.73;;
562;SDS011;266;49.514;8.294;2024-03-22T10:57:36;6.93;;;4.30;;
562;SDS011;266;49.514;8.294;2024-03-22T11:00:07;6.27;;;3.73;;
562;SDS011;266;49.514;8.294;2024-03-22T11:02:36;6.33;;;4.13;;
562;SDS011;266;49.514;8.294;2024-03-22T11:05:03;5.30;;;4.90;;
562;SDS011;266;49.514;8.294;2024-03-22T11:07:30;3.80;;;3.50;;
562;SDS011;266;49.514;8.294;2024-03-22T11:09:57;6.20;;;3.93;;
562;SDS011;266;49.514;8.294;2024-03-22T11:12:25;3.77;;;3.17;;
562;SDS011;266;49.514;8.294;2024-03-22T11:14:52;3.60;;;3.30;;
562;SDS011;266;49.514;8.294;2024-03-22T11:17:21;3.23;;;3.03;;
562;SDS011;266;49.514;8.294;2024-03-22T11:19:51;4.63;;;4.03;;
562;SDS011;266;49.514;8.294;2024-03-22T11:22:18;7.40;;;3.73;;
562;SDS011;266;49.514;8.294;2024-03-22T11:24:45;7.53;;;4.40;;
562;SDS011;266;49.514;8.294;2024-03-22T11:27:12;3.80;;;3.50;;
562;SDS011;266;49.514;8.294;2024-03-22T11:29:39;4.50;;;4.10;;
562;SDS011;266;49.514;8.294;2024-03-22T11:32:07;3.33;;;3.03;;
562;SDS011;266;49.514;8.294;2024-03-22T11:34:36;4.83;;;3.67;;
562;SDS011;266;49.514;8.294;2024-03-22T11:37:03;4.13;;;3.73;;
562;SDS011;266;49.514;8.294;2024-03-22T11:39:30;5.10;;;3.90;;
562;SDS011;266;49.514;8.294;2024-03-22T11:41:57;4.10;;;3.80;;
562;SDS011;266;49.514;8.294;2024-03-22T11:44:24;3.90;;;3.33;;
562;SDS011;266;49.514;8.294;2024-03-22T11:46:52;5.53;;;3.37;;
562;SDS011;266;49.514;8.294;2024-03-22T11:49:18;4.37;;;2.83;;
562;SDS011;266;49.514;8.294;2024-03-22T11:51:47;3.77;;;3.40;;
562;SDS011;266;49.514;8.294;2024-03-22T11:54:13;4.00;;;3.70;;
562;SDS011;266;49.514;8.294;2024-03-22T11:56:40;3.70;;;3.30;;
562;SDS011;266;49.514;8.294;2024-03-22T11:59:07;4.23;;;3.73;;
562;SDS011;266;49.514;8.294;2024-03-22T12:01:34;9.00;;;4.23;;
562;SDS011;266;49.514;8.294;2024-03-22T12:04:00;4.37;;;3.23;;
562;SDS011;266;49.514;8.294;2024-03-22T12:06:28;6.13;;;4.57;;
562;SDS011;266;49.514;8.294;2024-03-22T12:08:55;3.70;;;3.40;;
562;SDS011;266;49.514;8.294;2024-03-22T12:11:22;3.50;;;3.20;;
562;SDS011;266;49.514;8.294;2024-03-22T12:13:48;3.27;;;3.03;;
562;SDS011;266;49.514;8.294;2024-03-22T12:16:16;3.07;;;2.53;;
562;SDS011;266;49.514;8.294;2024-03-22T12:18:42;4.67;;;2.60;;
562;SDS011;266;49.514;8.294;2024-03-22T12:21:09;3.37;;;2.90;;
562;SDS011;266;49.514;8.294;2024-03-22T12:23:35;4.10;;;3.80;;
562;SDS011;266;49.514;8.294;2024-03-22T12:26:04;3.97;;;2.93;;
562;SDS011;266;49.514;8.294;2024-03-22T12:28:30;3.70;;;2.70;;
562;SDS011;266;49.514;8.294;2024-03-22T12:30:57;4.30;;;3.40;;
562;SDS011;266;49.514;8.294;2024-03-22T12:33:23;5.43;;;3.50;;
562;SDS011;266;49.514;8.294;2024-03-22T12:35:50;3.57;;;3.27;;
562;SDS011;266;49.514;8.294;2024-03-22T12:38:18;6.70;;;2.80;;
562;SDS011;266;49.514;8.294;2024-03-22T12:40:45;3.30;;;2.83;;
562;SDS011;266;49.514;8.294;2024-03-22T12:43:13;3.67;;;2.97;;
562;SDS011;266;49.514;8.294;2024-03-22T12:45:40;3.00;;;2.70;;
562;SDS011;266;49.514;8.294;2024-03-22T12:48:07;4.40;;;3.37;;
562;SDS011;266;49.514;8.294;2024-03-22T12:50:34;3.70;;;3.17;;
562;SDS011;266;49.514;8.294;2024-03-22T12:53:01;4.13;;;2.77;;
562;SDS011;266;49.514;8.294;2024-03-22T12:55:28;4.30;;;3.50;;
562;SDS011;266;49.514;8.294;2024-03-22T12:57:56;3.53;;;3.13;;
562;SDS011;266;49.514;8.294;2024-03-22T13:00:25;3.63;;;3.33;;
562;SDS011;266;49.514;8.294;2024-03-22T13:02:51;4.80;;;3.93;;
562;SDS011;266;49.514;8.294;2024-03-22T13:05:18;4.47;;;4.03;;
562;SDS011;266;49.514;8.294;2024-03-22T13:07:44;3.60;;;3.00;;
562;SDS011;266;49.514;8.294;2024-03-22T13:10:11;3.40;;;2.90;;
562;SDS011;266;49.514;8.294;2024-03-22T13:12:38;3.90;;;3.60;;
562;SDS011;266;49.514;8.294;2024-03-22T13:15:05;3.40;;;3.10;;
562;SDS011;266;49.514;8.294;2024-03-22T13:17:34;3.20;;;2.90;;
562;SDS011;266;49.514;8.294;2024-03-22T13:20:01;4.20;;;3.20;;
562;SDS011;266;49.514;8.294;2024-03-22T13:22:35;4.37;;;3.43;;
562;SDS011;266;49.514;8.294;2024-03-22T13:25:03;3.63;;;3.33;;
562;SDS011;266;49.514;8.294;2024-03-22T13:27:32;6.00;;;3.23;;
562;SDS011;266;49.514;8.294;2024-03-22T13:29:59;3.80;;;3.50;;
562;SDS011;266;49.514;8.294;2024-03-22T13:32:25;3.97;;;3.67;;
562;SDS011;266;49.514;8.294;2024-03-22T13:34:54;3.90;;;3.60;;
562;SDS011;266;49.514;8.294;2024-03-22T13:37:20;4.20;;;3.53;;
562;SDS011;266;49.514;8.294;2024-03-22T13:39:47;4.17;;;3.87;;
562;SDS011;266;49.514;8.294;2024-03-22T13:42:14;4.67;;;3.63;;
562;SDS011;266;49.514;8.294;2024-03-22T13:44:41;3.77;;;3.47;;
562;SDS011;266;49.514;8.294;2024-03-22T13:47:08;3.50;;;3.00;;
562;SDS011;266;49.514;8.294;2024-03-22T13:49:35;3.73;;;3.43;;
562;SDS011;266;49.514;8.294;2024-03-22T13:52:03;4.80;;;3.47;;
562;SDS011;266;49.514;8.294;2024-03-22T13:54:31;6.30;;;4.00;;
562;SDS011;266;49.514;8.294;2024-03-22T13:56:57;3.47;;;3.17;;
562;SDS011;266;49.514;8.294;2024-03-22T13:59:26;6.03;;;3.40;;
562;SDS011;266;49.514;8.294;2024-03-22T14:01:52;4.70;;;4.17;;
562;SDS011;266;49.514;8.294;2024-03-22T14:04:19;3.47;;;3.17;;
562;SDS011;266;49.514;8.294;2024-03-22T14:06:45;4.47;;;3.87;;
562;SDS011;266;49.514;8.294;2024-03-22T14:09:14;4.37;;;3.97;;
562;SDS011;266;49.514;8.294;2024-03-22T14:11:40;4.23;;;3.80;;
562;SDS011;266;49.514;8.294;2024-03-22T14:14:08;4.13;;;3.73;;
562;SDS011;266;49.514;8.294;2024-03-22T14:16:36;3.80;;;3.50;;
562;SDS011;266;49.514;8.294;2024-03-22T14:19:03;3.20;;;2.90;;
562;SDS011;266;49.514;8.294;2024-03-22T14:21:30;3.87;;;3.57;;
562;SDS011;266;49.514;8.294;2024-03-22T14:23:57;8.80;;;6.67;;
562;SDS011;266;49.514;8.294;2024-03-22T14:26:25;7.20;;;6.50;;
562;SDS011;266;49.514;8.294;2024-03-22T14:28:52;8.23;;;7.47;;
562;SDS011;266;49.514;8.294;2024-03-22T14:31:18;7.97;;;7.20;;
562;SDS011;266;49.514;8.294;2024-03-22T14:33:46;8.70;;;6.50;;
562;SDS011;266;49.514;8.294;2024-03-22T14:36:13;7.57;;;6.70;;
562;SDS011;266;49.514;8.294;2024-03-22T14:38:40;6.87;;;5.87;;
562;SDS011;266;49.514;8.294;2024-03-22T14:41:09;7.80;;;6.83;;
562;SDS011;266;49.514;8.294;2024-03-22T14:43:38;7.37;;;6.40;;
562;SDS011;266;49.514;8.294;2024-03-22T14:46:04;8.10;;;7.30;;
562;SDS011;266;49.514;8.294;2024-03-22T14:48:32;6.17;;;5.63;;
562;SDS011;266;49.514;8.294;2024-03-22T14:50:58;8.83;;;6.80;;
562;SDS011;266;49.514;8.294;2024-03-22T14:53:26;7.10;;;6.40;;
562;SDS011;266;49.514;8.294;2024-03-22T14:55:52;7.00;;;5.97;;
562;SDS011;266;49.514;8.294;2024-03-22T14:58:23;10.23;;;6.60;;
562;SDS011;266;49.514;8.294;2024-03-22T15:00:54;9.20;;;6.50;;
562;SDS011;266;49.514;8.294;2024-03-22T15:03:22;10.43;;;8.13;;
562;SDS011;266;49.514;8.294;2024-03-22T15:05:49;6.63;;;6.03;;
562;SDS011;266;49.514;8.294;2024-03-22T15:08:18;6.67;;;6.07;;
562;SDS011;266;49.514;8.294;2024-03-22T15:10:45;7.47;;;6.77;;
562;SDS011;266;49.514;8.294;2024-03-22T15:13:13;7.33;;;6.27;;
562;SDS011;266;49.514;8.294;2024-03-22T15:15:40;9.27;;;6.10;;
562;SDS011;266;49.514;8.294;2024-03-22T15:18:09;8.97;;;6.40;;
562;SDS011;266;49.514;8.294;2024-03-22T15:20:36;8.07;;;6.60;;
562;SDS011;266;49.514;8.294;2024-03-22T15:23:04;7.20;;;6.30;;
562;SDS011;266;49.514;8.294;2024-03-22T15:25:30;9.30;;;7.07;;
562;SDS011;266;49.514;8.294;2024-03-22T15:27:58;7.20;;;5.73;;
562;SDS011;266;49.514;8.294;2024-03-22T15:30:24;6.63;;;5.80;;
562;SDS011;266;49.514;8.294;2024-03-22T15:32:52;7.47;;;5.53;;
562;SDS011;266;49.514;8.294;2024-03-22T15:35:20;6.10;;;5.60;;
562;SDS011;266;49.514;8.294;2024-03-22T15:37:47;7.80;;;6.20;;
562;SDS011;266;49.514;8.294;2024-03-22T15:40:14;8.10;;;7.30;;
562;SDS011;266;49.514;8.294;2024-03-22T15:42:42;7.93;;;5.60;;
562;SDS011;266;49.514;8.294;2024-03-22T15:45:08;6.20;;;5.60;;